• Join FlightAware (Why Join?)
  • Login
  • US Flag 
02:38PM EDT


 

Airport Tracker/Info


-or-


 

Live Flight TrackerFlight Track Log ✈ SWA8500 ✈ 20-Apr-2013 ✈ KGSO - KGEG

Flight Track Log - Related Links

Times and Time Zones

All times are in EDT time to prevent confusion due to time zone crossing. See the SWA8500 flight status page for this flight to view local times or setup timezone preferences in your user account.

Time Position Orientation Groundspeed Altitude Reporting Facility
EDT Latitude Longitude Course Direction KTS MPH feet Rate Location/Type
12:03AM 36.1078 -80.0344 308° West 197 227 5,700  Level Atlanta Center
12:04AM 36.1517 -80.1044 308° West 240 276 9,900 3,300 Climbing Atlanta Center
12:06AM 36.2550 -80.2719 307° West 322 371 15,700 2,880 Climbing Atlanta Center
12:07AM 36.3058 -80.3725 302° West 345 397 18,700 2,760 Climbing Atlanta Center
12:08AM 36.4440 -80.5643 313° West  Level FlightAware Approximate
12:08AM 36.3633 -80.4783 304° West 358 412 21,300  Level Atlanta Center
12:09AM 36.5028 -80.6645 308° West  Level FlightAware Approximate
12:09AM 36.4269 -80.5864 306° West 372 428 23,800  Level Atlanta Center
12:10AM 36.4842 -80.6975 303° West 390 449 26,000 2,220 Climbing Atlanta Center
12:11AM 36.5475 -80.8086 305° West 396 456 28,300 2,280 Climbing Atlanta Center
12:12AM 36.6069 -80.9250 302° West 396 456 30,600 2,220 Climbing Atlanta Center
12:13AM 36.6681 -81.0339 305° West 391 450 32,800 1,800 Climbing Atlanta Center
12:14AM 36.7314 -81.1533 304° West 381 438 34,300 960 Climbing Atlanta Center
12:17AM 36.8550 -81.3875 303° West 387 445 36,000 480 Climbing Indianapolis Center
12:18AM 36.9119 -81.4964 303° West 385 443 36,000  Level Indianapolis Center
12:19AM 36.9825 -81.6267 304° West 385 443 36,000  Level Indianapolis Center
12:20AM 37.0300 -81.7208 302° West 385 443 36,000  Level Indianapolis Center
12:21AM 37.0989 -81.8514 304° West 384 442 36,000  Level Indianapolis Center
12:22AM 37.1575 -81.9628 303° West 383 441 36,000  Level Indianapolis Center
12:23AM 37.2164 -82.0756 303° West 386 444 36,000  Level Indianapolis Center
12:24AM 37.2753 -82.1894 303° West 388 447 36,000  Level Indianapolis Center
12:25AM 37.3339 -82.3011 303° West 386 444 36,000  Level Indianapolis Center
12:26AM 37.3917 -82.4144 303° West 386 444 36,000  Level Indianapolis Center
12:27AM 37.4494 -82.5272 303° West 384 442 36,000  Level Indianapolis Center
12:28AM 37.5075 -82.6406 303° West 383 441 36,000  Level Indianapolis Center
12:29AM 37.5633 -82.7522 302° West 379 436 36,000  Level Indianapolis Center
12:30AM 37.6206 -82.8631 303° West 378 435 36,000  Level Indianapolis Center
12:31AM 37.6767 -82.9742 303° West 377 434 36,000  Level Indianapolis Center
12:32AM 37.7322 -83.0856 302° West 374 430 36,000  Level Indianapolis Center
12:33AM 37.7886 -83.1986 302° West 379 436 36,000  Level Indianapolis Center
12:34AM 37.8439 -83.3094 302° West 375 432 36,000  Level Indianapolis Center
12:35AM 37.9000 -83.4219 302° West 377 434 36,000  Level Indianapolis Center
12:36AM 37.9561 -83.5339 302° West 376 433 36,000  Level Indianapolis Center
12:37AM 38.0117 -83.6456 302° West 375 432 36,000  Level Indianapolis Center
12:38AM 38.0672 -83.7567 302° West 374 430 36,000  Level Indianapolis Center
12:39AM 38.1219 -83.8703 302° West 376 433 36,000  Level Indianapolis Center
12:40AM 38.1769 -83.9828 302° West 374 430 36,000  Level Indianapolis Center
12:41AM 38.2325 -84.0950 302° West 375 432 36,000  Level Indianapolis Center
12:42AM 38.2869 -84.2072 302° West 372 428 36,000  Level Indianapolis Center
12:43AM 38.3419 -84.3197 302° West 373 429 36,000  Level Indianapolis Center
12:44AM 38.3967 -84.4314 302° West 371 427 36,000  Level Indianapolis Center
12:45AM 38.4508 -84.5456 301° West 374 430 36,000  Level Indianapolis Center
12:46AM 38.5050 -84.6578 302° West 373 429 36,000  Level Indianapolis Center
12:47AM 38.5608 -84.7728 302° West 379 436 36,000  Level Indianapolis Center
12:48AM 38.6156 -84.8886 301° West 382 440 36,000  Level Indianapolis Center
12:49AM 38.6672 -84.9986 301° West 383 441 36,000  Level Indianapolis Center
12:50AM 38.7228 -85.1161 301° West 385 443 36,000  Level Indianapolis Center
12:51AM 38.7794 -85.2344 302° West 386 444 36,000  Level Indianapolis Center
12:52AM 38.8342 -85.3531 301° West 387 445 36,000  Level Indianapolis Center
12:53AM 38.8889 -85.4717 301° West 386 444 36,000  Level Indianapolis Center
12:54AM 38.9472 -85.5906 302° West 391 450 36,000  Level Indianapolis Center
12:55AM 39.0033 -85.7108 301° West 392 451 36,000  Level Indianapolis Center
12:56AM 39.0575 -85.8300 300° West 388 447 36,000  Level Indianapolis Center
12:57AM 39.1136 -85.9500 301° West 391 450 36,000  Level Indianapolis Center
12:58AM 39.1694 -86.0697 301° West 389 448 36,000  Level Indianapolis Center
12:59AM 39.2231 -86.1886 300° West 386 444 36,000  Level Indianapolis Center
01:00AM 39.2772 -86.3072 301° West 385 443 36,000  Level Indianapolis Center
01:01AM 39.3311 -86.4258 300° West 384 442 36,000  Level Indianapolis Center
01:02AM 39.3853 -86.5450 300° West 384 442 36,000  Level Indianapolis Center
01:03AM 39.4386 -86.6658 300° West 385 443 36,000  Level Indianapolis Center
01:04AM 39.4922 -86.7853 300° West 385 443 36,000  Level Indianapolis Center
01:05AM 39.5456 -86.9056 300° West 384 442 36,000  Level Indianapolis Center
01:06AM 39.5992 -87.0253 300° West 384 442 36,000  Level Indianapolis Center
01:07AM 39.6522 -87.1439 300° West 381 438 36,000  Level Indianapolis Center
01:08AM 39.7067 -87.2619 301° West 382 440 36,000  Level Indianapolis Center
01:09AM 39.7586 -87.3822 299° West 381 438 36,000  Level Indianapolis Center
01:10AM 39.8114 -87.5036 300° West 383 441 36,000  Level Indianapolis Center
01:11AM 39.8647 -87.6233 300° West 382 440 36,000  Level Indianapolis Center
01:12AM 39.9164 -87.7453 299° West 384 442 36,000  Level Indianapolis Center
01:13AM 39.9692 -87.8639 300° West 380 437 36,000  Level Indianapolis Center
01:14AM 40.0200 -87.9819 299° West 380 437 36,000  Level Chicago Center
01:15AM 40.0722 -88.1028 299° West 381 438 36,000  Level Chicago Center
01:16AM 40.1236 -88.2242 299° West 382 440 36,000  Level Chicago Center
01:17AM 40.1761 -88.3453 300° West 383 441 36,000  Level Chicago Center
01:18AM 40.2294 -88.4717 299° West 385 443 36,000  Level Chicago Center
01:19AM 40.2800 -88.5897 299° West 386 444 36,000  Level Chicago Center
01:20AM 40.3311 -88.7125 299° West 385 443 36,000  Level Chicago Center
01:21AM 40.3833 -88.8353 299° West 385 443 36,000  Level Chicago Center
01:22AM 40.4358 -88.9594 299° West 387 445 36,000  Level Chicago Center
01:23AM 40.4864 -89.0831 298° West 386 444 36,000  Level Chicago Center
01:24AM 40.5381 -89.2083 299° West 388 447 36,000  Level Chicago Center
01:25AM 40.5903 -89.3328 299° West 389 448 36,000  Level Chicago Center
01:26AM 40.6517 -89.4825 298° West 389 448 36,000  Level Chicago Center
01:27AM 40.6942 -89.5850 299° West 389 448 36,000  Level Chicago Center
01:28AM 40.7564 -89.7358 299° West 393 452 36,000  Level Chicago Center
01:29AM 40.8086 -89.8622 299° West 393 452 36,000  Level Chicago Center
01:30AM 40.8575 -89.9878 297° West 389 448 36,000  Level Chicago Center
01:31AM 40.9097 -90.1142 299° West 392 451 36,000  Level Chicago Center
01:32AM 40.9606 -90.2419 298° West 393 452 36,000  Level Chicago Center
01:33AM 41.0078 -90.3594 298° West 398 458 36,000  Level Chicago Center
01:34AM 41.0583 -90.4883 298° West 397 457 36,000  Level Chicago Center
01:35AM 41.1100 -90.6169 298° West 395 455 36,000  Level Chicago Center
01:36AM 41.1600 -90.7472 297° West 395 455 36,000  Level Chicago Center
01:37AM 41.2106 -90.8769 297° West 397 457 36,000  Level Chicago Center
01:38AM 41.2619 -91.0069 298° West 396 456 36,000  Level Chicago Center
01:39AM 41.3122 -91.1364 297° West 396 456 36,000  Level Chicago Center
01:40AM 41.3636 -91.2667 298° West 397 457 36,000  Level Chicago Center
01:41AM 41.4131 -91.3961 297° West 396 456 36,000  Level Chicago Center
01:42AM 41.4633 -91.5275 297° West 397 457 36,000  Level Chicago Center
01:43AM 41.5136 -91.6578 297° West 398 458 36,000  Level Chicago Center
01:44AM 41.5628 -91.7883 297° West 397 457 36,000  Level Chicago Center
01:45AM 41.6125 -91.9194 297° West 397 457 36,000  Level Chicago Center
01:46AM 41.6625 -92.0519 297° West 399 459 36,000  Level Chicago Center
01:47AM 41.7119 -92.1833 297° West 398 458 36,000  Level Chicago Center
01:48AM 41.7614 -92.3153 297° West 398 458 36,000  Level Chicago Center
01:49AM 41.8111 -92.4472 297° West 398 458 36,000  Level Chicago Center
01:50AM 41.8589 -92.5783 296° West 394 453 36,000  Level Chicago Center
01:51AM 41.9081 -92.7128 296° West 395 455 36,000  Level Minneapolis Center
01:52AM 41.9564 -92.8444 296° West 396 456 36,000  Level Minneapolis Center
01:53AM 42.0036 -92.9756 296° West 393 452 36,000  Level Minneapolis Center
01:54AM 42.0514 -93.1069 296° West 394 453 36,000  Level Minneapolis Center
01:55AM 42.1006 -93.2383 297° West 394 453 36,000  Level Minneapolis Center
01:56AM 42.1478 -93.3703 296° West 394 453 36,000  Level Minneapolis Center
01:57AM 42.1958 -93.5025 296° West 395 455 36,000  Level Minneapolis Center
01:58AM 42.2422 -93.6356 295° West 394 453 36,000  Level Minneapolis Center
01:59AM 42.2897 -93.7672 296° West 393 452 36,000  Level Minneapolis Center
02:00AM 42.3361 -93.9000 295° West 393 452 36,000  Level Minneapolis Center
02:01AM 42.3822 -94.0336 295° West 395 455 36,000  Level Minneapolis Center
02:02AM 42.4292 -94.1667 296° West 395 455 36,000  Level Minneapolis Center
02:03AM 42.4769 -94.3000 296° West 394 453 36,000  Level Minneapolis Center
02:04AM 42.5219 -94.4350 294° West 396 456 36,000  Level Minneapolis Center
02:05AM 42.5681 -94.5700 295° West 397 457 36,000  Level Minneapolis Center
02:06AM 42.6172 -94.7075 296° West 398 458 36,000  Level Minneapolis Center
02:07AM 42.6636 -94.8444 295° West 400 460 36,000  Level Minneapolis Center
02:08AM 42.7106 -94.9819 295° West 401 461 36,000  Level Minneapolis Center
02:09AM 42.7636 -95.1375 295° West 396 456 36,000  Level Minneapolis Center
02:10AM 42.8100 -95.2750 295° West 399 459 36,000  Level Minneapolis Center
02:11AM 42.8553 -95.4122 294° West 397 457 36,000  Level Minneapolis Center
02:12AM 42.9008 -95.5508 294° West 400 460 36,000  Level Minneapolis Center
02:13AM 42.9469 -95.6864 295° West 395 455 36,000  Level Minneapolis Center
02:14AM 42.9911 -95.8217 294° West 391 450 36,000  Level Minneapolis Center
02:15AM 43.0356 -95.9539 295° West 386 444 36,000  Level Minneapolis Center
02:16AM 43.0794 -96.0892 294° West 387 445 36,000  Level Minneapolis Center
02:17AM 43.1228 -96.2233 294° West 385 443 36,000  Level Minneapolis Center
02:18AM 43.1667 -96.3581 294° West 387 445 36,000  Level Minneapolis Center
02:19AM 43.2097 -96.4950 293° West 389 448 36,000  Level Minneapolis Center
02:20AM 43.2533 -96.6281 294° West 386 444 36,000  Level Minneapolis Center
02:21AM 43.2969 -96.7642 294° West 387 445 36,000  Level Minneapolis Center
02:22AM 43.3383 -96.9028 292° West 390 449 36,000  Level Minneapolis Center
02:23AM 43.3819 -97.0392 294° West 390 449 36,000  Level Minneapolis Center
02:24AM 43.4244 -97.1747 293° West 388 447 36,000  Level Minneapolis Center
02:25AM 43.4675 -97.3128 293° West 390 449 36,000  Level Minneapolis Center
02:26AM 43.5117 -97.4511 294° West 392 451 36,000  Level Minneapolis Center
02:27AM 43.5544 -97.5908 293° West 394 453 36,000  Level Minneapolis Center
02:28AM 43.5967 -97.7297 293° West 394 453 36,000  Level Minneapolis Center
02:29AM 43.6383 -97.8681 293° West 392 451 36,000  Level Minneapolis Center
02:30AM 43.6803 -98.0050 293° West 389 448 36,000  Level Minneapolis Center
02:31AM 43.7217 -98.1436 292° West 391 450 36,000  Level Minneapolis Center
02:32AM 43.7628 -98.2819 292° West 390 449 36,000  Level Minneapolis Center
02:33AM 43.8050 -98.4178 293° West 386 444 36,000  Level Minneapolis Center
02:34AM 43.8456 -98.5556 292° West 388 447 36,000  Level Minneapolis Center
02:35AM 43.8864 -98.6939 292° West 388 447 36,000  Level Minneapolis Center
02:36AM 43.9203 -98.8128 292° West 384 442 36,000  Level Minneapolis Center
02:37AM 43.9614 -98.9497 293° West 384 442 36,000  Level Minneapolis Center
02:38AM 44.0003 -99.0881 291° West 384 442 36,000  Level Minneapolis Center
02:39AM 44.0408 -99.2247 292° West 382 440 36,000  Level Minneapolis Center
02:40AM 44.0811 -99.3636 292° West 385 443 36,000  Level Minneapolis Center
02:41AM 44.1211 -99.5022 292° West 385 443 36,000  Level Minneapolis Center
02:42AM 44.1592 -99.6414 291° West 384 442 36,000  Level Minneapolis Center
02:43AM 44.1989 -99.7800 292° West 384 442 36,000  Level Minneapolis Center
02:44AM 44.2383 -99.9208 291° West 388 447 36,000  Level Minneapolis Center
02:45AM 44.2772 -100.0603 291° West 386 444 36,000  Level Minneapolis Center
02:46AM 44.3164 -100.1992 292° West 384 442 36,000  Level Minneapolis Center
02:47AM 44.3550 -100.3394 291° West 385 443 36,000  Level Minneapolis Center
02:48AM 44.3931 -100.4808 291° West 386 444 36,000  Level Minneapolis Center
02:49AM 44.4319 -100.6200 291° West 385 443 36,000  Level Minneapolis Center
02:50AM 44.4697 -100.7614 291° West 386 444 36,000  Level Minneapolis Center
02:51AM 44.5081 -100.9017 291° West 385 443 36,000  Level Minneapolis Center
02:52AM 44.5458 -101.0419 291° West 385 443 36,000  Level Minneapolis Center
02:53AM 44.5833 -101.1825 291° West 384 442 36,000  Level Minneapolis Center
02:54AM 44.6203 -101.3239 290° West 385 443 36,000  Level Minneapolis Center
02:55AM 44.6606 -101.4658 292° West 387 445 36,000  Level Minneapolis Center
02:56AM 44.6978 -101.6083 290° West 388 447 36,000  Level Minneapolis Center
02:57AM 44.7344 -101.7497 290° West 386 444 36,000  Level Minneapolis Center
02:58AM 44.7719 -101.8917 290° West 386 444 36,000  Level Minneapolis Center
02:59AM 44.8072 -102.0364 289° West 389 448 36,000  Level Minneapolis Center
03:00AM 44.8456 -102.1789 291° West 389 448 36,000  Level Minneapolis Center
03:01AM 44.8814 -102.3233 289° West 389 448 36,000  Level Minneapolis Center
03:02AM 44.9183 -102.4672 290° West 389 448 36,000  Level Minneapolis Center
03:03AM 44.9553 -102.6108 290° West 390 449 36,000  Level Minneapolis Center
03:04AM 44.9911 -102.7567 289° West 391 450 36,000  Level Minneapolis Center
03:05AM 45.0264 -102.9003 289° West 390 449 36,000  Level Minneapolis Center
03:06AM 45.0622 -103.0456 289° West 391 450 36,000  Level Minneapolis Center
03:07AM 45.0986 -103.1911 290° West 392 451 36,000  Level Minneapolis Center
03:08AM 45.1342 -103.3400 289° West 389 448 36,000  Level Minneapolis Center
03:09AM 45.1697 -103.4861 289° West 392 451 36,000  Level Minneapolis Center
03:10AM 45.2058 -103.6322 289° West 393 452 36,000  Level Minneapolis Center
03:11AM 45.2397 -103.7803 288° West 395 455 36,000  Level Minneapolis Center
03:12AM 45.2747 -103.9256 289° West 392 451 36,000  Level Minneapolis Center
03:13AM 45.3086 -104.0736 288° West 393 452 36,000  Level Minneapolis Center
03:14AM 45.3442 -104.2206 289° West 393 452 36,000  Level Minneapolis Center
03:15AM 45.3769 -104.3669 288° West 391 450 36,000  Level Minneapolis Center
03:16AM 45.4117 -104.5131 289° West 391 450 36,000  Level Minneapolis Center
03:17AM 45.4511 -104.6958 287° West 387 445 36,000  Level Salt Lake Center
03:18AM 45.4825 -104.8361 288° West 388 447 36,000  Level Salt Lake Center
03:19AM 45.5153 -104.9750 289° West 388 447 36,000  Level Salt Lake Center
03:20AM 45.5456 -105.1144 287° West 387 445 36,000  Level Salt Lake Center
03:21AM 45.5825 -105.2786 288° West 388 447 36,000  Level Salt Lake Center
03:22AM 45.6136 -105.4178 288° West 386 444 36,000  Level Salt Lake Center
03:23AM 45.6442 -105.5567 288° West 384 442 36,000  Level Salt Lake Center
03:24AM 45.6792 -105.7217 287° West 388 447 36,000  Level Salt Lake Center
03:25AM 45.7097 -105.8617 287° West 387 445 36,000  Level Salt Lake Center
03:26AM 45.7400 -106.0011 287° West 385 443 36,000  Level Salt Lake Center
03:27AM 45.7669 -106.1403 286° West 381 438 36,000  Level Salt Lake Center
03:28AM 45.8003 -106.2997 287° West 375 432 36,000  Level Salt Lake Center
03:29AM 45.8303 -106.4400 287° West 381 438 36,000  Level Salt Lake Center
03:30AM 45.8600 -106.5814 287° West 385 443 36,000  Level Salt Lake Center
03:31AM 45.8906 -106.7228 287° West 386 444 36,000  Level Salt Lake Center
03:32AM 45.9247 -106.8894 286° West 388 447 36,000  Level Salt Lake Center
03:33AM 45.9550 -107.0300 287° West 388 447 36,000  Level Salt Lake Center
03:34AM 45.9844 -107.1758 286° West 393 452 36,000  Level Salt Lake Center
03:35AM 46.0172 -107.3394 286° West 385 443 36,000  Level Salt Lake Center
03:36AM 46.0456 -107.4800 286° West 383 441 36,000  Level Salt Lake Center
03:37AM 46.0739 -107.6214 286° West 384 442 36,000  Level Salt Lake Center
03:38AM 46.1061 -107.7869 286° West 386 444 36,000  Level Salt Lake Center
03:39AM 46.1342 -107.9269 286° West 381 438 36,000  Level Salt Lake Center
03:40AM 46.1606 -108.0667 285° West 378 435 36,000  Level Salt Lake Center
03:41AM 46.1875 -108.2042 286° West 375 432 36,000  Level Salt Lake Center
03:42AM 46.2181 -108.3658 285° West 375 432 36,000  Level Salt Lake Center
03:43AM 46.2444 -108.5039 285° West 374 430 36,000  Level Salt Lake Center
03:44AM 46.2706 -108.6411 285° West 372 428 36,000  Level Salt Lake Center
03:45AM 46.3011 -108.8025 285° West 373 429 36,000  Level Salt Lake Center
03:46AM 46.3258 -108.9403 285° West 370 426 36,000  Level Salt Lake Center
03:47AM 46.3514 -109.0772 285° West 368 423 36,000  Level Salt Lake Center
03:48AM 46.3769 -109.2128 285° West 366 421 36,000  Level Salt Lake Center
03:49AM 46.4056 -109.3694 285° West 362 417 36,000  Level Salt Lake Center
03:50AM 46.4294 -109.5039 285° West 360 414 36,000  Level Salt Lake Center
03:51AM 46.4550 -109.6369 286° West 359 413 36,000  Level Salt Lake Center
03:52AM 46.4756 -109.7756 282° West 363 418 36,000  Level Salt Lake Center
03:53AM 46.5022 -109.9294 284° West 357 411 36,000  Level Salt Lake Center
03:54AM 46.5256 -110.0617 284° West 354 407 36,000  Level Salt Lake Center
03:55AM 46.5483 -110.1956 284° West 357 411 36,000  Level Salt Lake Center
03:56AM 46.5756 -110.3508 284° West 356 410 36,000  Level Salt Lake Center
03:57AM 46.5978 -110.4833 284° West 355 409 36,000  Level Salt Lake Center
03:58AM 46.6172 -110.6008 284° West 357 411 36,000  Level Salt Lake Center
03:59AM 46.6414 -110.7428 284° West 361 415 36,000  Level Salt Lake Center
04:00AM 46.6658 -110.8858 284° West 364 419 36,000  Level Salt Lake Center
04:01AM 46.6897 -111.0297 284° West 365 420 36,000  Level Salt Lake Center
04:02AM 46.7139 -111.1739 284° West 366 421 36,000  Level Salt Lake Center
04:03AM 46.7372 -111.3186 283° West 367 422 36,000  Level Salt Lake Center
04:04AM 46.7600 -111.4628 283° West 366 421 36,000  Level Salt Lake Center
04:05AM 46.7828 -111.6089 283° West 367 422 36,000  Level Salt Lake Center
04:06AM 46.8061 -111.7567 283° West 372 428 36,000  Level Salt Lake Center
04:07AM 46.8297 -111.9042 283° West 373 429 36,000  Level Salt Lake Center
04:08AM 46.8517 -112.0522 282° West 373 429 36,000  Level Salt Lake Center
04:09AM 46.8753 -112.2006 283° West 374 430 36,000  Level Salt Lake Center
04:10AM 46.8967 -112.3483 282° West 373 429 36,000  Level Salt Lake Center
04:11AM 46.9189 -112.4981 282° West 374 430 36,000 -60 Level Salt Lake Center
04:12AM 46.9419 -112.6464 283° West 375 432 35,900  Descending Salt Lake Center
04:13AM 46.9644 -112.7939 283° West 373 429 36,000  Climbing Salt Lake Center
04:14AM 46.9856 -112.9436 282° West 377 434 36,000  Level Salt Lake Center
04:15AM 47.0061 -113.0903 282° West 370 426 36,000  Level Salt Lake Center
04:16AM 47.0275 -113.2356 282° West 365 420 36,000  Level Salt Lake Center
04:17AM 47.0486 -113.3814 282° West 366 421 36,000  Level Salt Lake Center
04:18AM 47.0686 -113.5228 282° West 358 412 36,000  Level Salt Lake Center
04:19AM 47.0872 -113.6592 281° West 344 396 36,000  Level Salt Lake Center
04:20AM 47.1053 -113.7981 281° West 345 397 36,000  Level Salt Lake Center
04:21AM 47.1239 -113.9353 281° West 344 396 36,000  Level Salt Lake Center
04:22AM 47.1428 -114.0719 282° West 342 394 36,000  Level Salt Lake Center
04:23AM 47.1617 -114.2094 281° West 343 395 36,000  Level Salt Lake Center
04:24AM 47.1797 -114.3478 281° West 344 396 36,000  Level Salt Lake Center
04:25AM 47.1989 -114.4856 282° West 344 396 36,000  Level Salt Lake Center
04:26AM 47.2167 -114.6247 281° West 345 397 36,000  Level Salt Lake Center
04:27AM 47.2244 -114.6819 281° West 344 396 36,000  Level Seattle Center
04:28AM 47.2431 -114.8225 281° West 347 399 36,000  Level Seattle Center
04:29AM 47.2611 -114.9625 281° West 348 400 36,000  Level Seattle Center
04:30AM 47.2778 -115.1022 280° West 348 400 36,000  Level Seattle Center
04:31AM 47.2958 -115.2450 281° West 352 405 36,000  Level Seattle Center
04:32AM 47.3136 -115.3861 281° West 353 406 36,000  Level Seattle Center
04:33AM 47.3306 -115.5278 280° West 352 405 36,000 -60 Level Seattle Center
04:34AM 47.3478 -115.6706 280° West 354 407 35,900 -1,800 Descending Seattle Center
04:35AM 47.3650 -115.8219 280° West 357 411 32,400 -3,480 Descending Seattle Center
04:36AM 47.3806 -115.9583 280° West 343 395 29,000 -3,180 Descending Seattle Center
04:37AM 47.3967 -116.0872 281° West 325 374 26,100 -1,980 Descending Seattle Center
04:38AM 47.4106 -116.2089 280° West 306 352 25,100 -1,740 Descending Seattle Center
04:39AM 47.4250 -116.3414 279° West 321 369 22,600 -2,640 Descending Seattle Center
04:40AM 47.4406 -116.4742 280° West 330 380 19,800 -2,700 Descending Seattle Center
04:41AM 47.4619 -116.5986 284° West 315 362 17,200 -2,940 Descending Seattle Center
04:42AM 47.4936 -116.7156 292° West 310 357 14,000 -2,580 Descending Seattle Center
04:43AM 47.5242 -116.8278 292° West 297 342 12,100 -1,800 Descending Seattle Center
04:44AM 47.5581 -116.9344 295° West 268 308 10,400 -1,860 Descending Seattle Center
04:45AM 47.5872 -117.0311 294° West 263 303 8,400 -1,680 Descending Seattle Center
04:46AM 47.6142 -117.1308 292° West 263 303 7,100 -1,260 Descending Seattle Center
04:47AM 47.6361 -117.2172 291° West 228 262 5,900 -840 Descending Seattle Center
04:48AM 47.6581 -117.3011 291° West 221 254 5,500 -840 Descending Seattle Center
04:49AM 47.6728 -117.3625 290° West 197 227 4,300 -960 Descending Seattle Center
04:50AM 47.6781 -117.4358 276° West 171 197 3,600 -600 Descending Seattle Center
04:51AM 47.6553 -117.4828 234° Southwest 143 165 3,100 -600 Descending Seattle Center
04:52AM 47.6319 -117.5183 226° Southwest 124 143 2,400 -420 Descending Seattle Center
04:53AM 47.6192 -117.5317 215° Southwest 89 102 2,300 -120 Descending Seattle Center